TimeCDT,TemperatureF,Dew PointF,Humidity,Sea Level PressureIn,VisibilityMPH,Wind Direction,Wind SpeedMPH,Gust SpeedMPH,PrecipitationIn,Events,Conditions,WindDirDegrees,DateUTC
12:51 AM,68.0,57.9,70,29.82,10.0,Calm,Calm,-,N/A,,Clear,0,2013-09-24 05:51:00
1:51 AM,66.9,57.9,73,29.82,10.0,Calm,Calm,-,N/A,,Clear,0,2013-09-24 06:51:00
2:51 AM,66.9,59.0,76,29.82,10.0,Calm,Calm,-,N/A,,Clear,0,2013-09-24 07:51:00
3:51 AM,66.0,59.0,78,29.83,10.0,Calm,Calm,-,N/A,,Clear,0,2013-09-24 08:51:00
4:51 AM,70.0,55.9,61,29.83,10.0,NW,3.5,-,N/A,,Clear,310,2013-09-24 09:51:00
5:51 AM,70.0,59.0,68,29.84,10.0,Variable,3.5,-,N/A,,Clear,0,2013-09-24 10:51:00
6:51 AM,68.0,59.0,73,29.86,10.0,WNW,4.6,-,N/A,,Clear,300,2013-09-24 11:51:00
7:51 AM,70.0,55.9,61,29.88,10.0,WNW,4.6,-,N/A,,Clear,290,2013-09-24 12:51:00
8:51 AM,73.9,57.9,57,29.89,10.0,Calm,Calm,-,N/A,,Clear,0,2013-09-24 13:51:00
9:51 AM,79.0,61.0,54,29.90,10.0,WNW,4.6,-,N/A,,Clear,290,2013-09-24 14:51:00
10:51 AM,84.0,61.0,46,29.91,10.0,NW,5.8,-,N/A,,Clear,310,2013-09-24 15:51:00
11:51 AM,89.1,62.1,40,29.90,10.0,WNW,5.8,-,N/A,,Clear,290,2013-09-24 16:51:00
12:51 PM,91.9,59.0,33,29.88,10.0,Variable,3.5,-,N/A,,Clear,0,2013-09-24 17:51:00
1:51 PM,95.0,55.9,27,29.86,10.0,North,8.1,-,N/A,,Clear,10,2013-09-24 18:51:00
2:51 PM,96.1,54.0,24,29.83,10.0,Variable,3.5,-,N/A,,Clear,0,2013-09-24 19:51:00
3:51 PM,96.1,51.1,22,29.82,10.0,Variable,4.6,-,N/A,,Clear,0,2013-09-24 20:51:00
4:51 PM,97.0,54.0,23,29.81,10.0,North,-9999.0,-,N/A,,Clear,0,2013-09-24 21:51:00
5:51 PM,93.9,53.1,25,29.81,10.0,NNE,4.6,-,N/A,,Clear,30,2013-09-24 22:51:00
6:51 PM,91.0,54.0,28,29.81,10.0,North,4.6,-,N/A,,Clear,360,2013-09-24 23:51:00
7:51 PM,87.1,55.9,35,29.82,10.0,Calm,Calm,-,N/A,,Clear,0,2013-09-25 00:51:00
8:51 PM,84.0,57.0,40,29.84,10.0,NE,3.5,-,N/A,,Clear,50,2013-09-25 01:51:00
9:51 PM,82.0,57.9,44,29.85,10.0,NNE,3.5,-,N/A,,Clear,30,2013-09-25 02:51:00
10:51 PM,80.1,59.0,48,29.86,10.0,NNE,3.5,-,N/A,,Clear,20,2013-09-25 03:51:00
11:51 PM,75.0,60.1,60,29.86,10.0,Calm,Calm,-,N/A,,Clear,0,2013-09-25 04:51:00